This is the latest recevied weather packets stored in our database for station/object GW1598. If no packets are shown the sender has not sent any weather packets the latest 10 day(s).
| Time | Temp. | Humidity | Pressure | Rain* | Wind** | Luminosity | Snow |
|---|---|---|---|---|---|---|---|
| 1777254135 | 12.78° C | 90% | 1012.8 hPa | 0 mm | - | - | - |
| 1777253771 | 12.78° C | 90% | 1012.8 hPa | 0 mm | - | - | - |
| 1777247674 | 17.78° C | 71% | 1011.8 hPa | 0 mm | - | - | - |
| 1777245158 | 19.44° C | 65% | 1011.8 hPa | 0 mm | - | - | - |
| 1777244805 | 19.44° C | 65% | 1011.8 hPa | 0 mm | - | - | - |
| 1777241198 | 19.44° C | 63% | 1011.8 hPa | 0 mm | - | - | - |
| 1777240488 | 19.44° C | 65% | 1011.8 hPa | 0 mm | - | - | - |
| 1777238679 | 18.33° C | 66% | 1011.8 hPa | 0 mm | - | - | - |
| 1777235814 | 17.78° C | 67% | 1011.8 hPa | 0 mm | - | - | - |
| 1777234360 | 17.22° C | 71% | 1011.8 hPa | 0 mm | - | - | - |
| 1777234000 | 17.22° C | 71% | 1011.8 hPa | 0 mm | - | - | - |
| 1777231817 | 16.11° C | 72% | 1012.5 hPa | 0 mm | - | - | - |
| 1777229659 | 15.56° C | 73% | 1012.5 hPa | 0 mm | - | - | - |
| 1777228402 | 15.56° C | 75% | 1012.5 hPa | 0 mm | - | - | - |
| 1777226232 | 15° C | 77% | 1012.5 hPa | 0 mm | - | - | - |
| 1777222106 | 13.89° C | 80% | 1012.8 hPa | 0 mm | - | - | - |
| 1777221387 | 13.33° C | 80% | 1012.8 hPa | 0 mm | - | - | - |
| 1777220659 | 13.33° C | 80% | 1012.8 hPa | 0 mm | - | - | - |
| 1777216009 | 11.67° C | 84% | 1012.8 hPa | 0 mm | - | - | - |
| 1777215257 | 11.67° C | 85% | 1012.8 hPa | 0 mm | - | - | - |
| 1777214931 | 11.67° C | 85% | 1012.8 hPa | 0 mm | - | - | - |
| 1777208955 | 10.56° C | 87% | 1012.1 hPa | 0 mm | - | - | - |
| 1777208602 | 10.56° C | 87% | 1012.1 hPa | 0 mm | - | - | - |
| 1777207359 | 10.56° C | 86% | 1012.1 hPa | 0 mm | - | - | - |
| 1777202317 | 11.67° C | 86% | 1010.4 hPa | 0 mm | - | - | - |
* Rain since midnight (hover to see other rain measurements)
** Current wind speed in m/s (hover to see current wind gust speed)